DW6169 Weather Reports


Display with metric or nautical units.
time (UTC)temp
F
wind
direction
speed
MPH
gust
MPH
rain 1hr
in
rain 24hr
in
rain mn
in
humidity
%
barometer
mb
20200402073129 70 61 0.0 0.0 0.00 0.00 0.00 72 1012.1
20200402071747 71 61 0.0 0.0 0.00 0.00 0.00 71 1012.2
20200402070213 71 61 0.0 0.0 0.00 0.00 0.00 70 1012.1
20200402064716 71 61 0.0 0.0 0.00 0.00 0.00 71 1012.2
20200402063119 71 61 0.0 0.0 0.00 0.00 0.00 71 1012.2
20200402061719 71 61 0.0 0.0 0.00 0.00 0.00 71 1012.3
20200402060212 71 61 0.0 0.0 0.00 0.00 0.00 72 1012.4
20200402054633 72 61 0.0 0.0 0.00 0.00 0.00 72 1012.5
20200402053144 72 0.0 0.0 0.00 0.00 0.00 74 1012.6
20200402051713 72 61 0.0 0.0 0.00 0.00 0.00 74 1012.6
20200402050135 72 61 0.0 0.0 0.00 0.00 0.00 74 1012.6
20200402044736 72 61 0.0 0.0 0.00 0.00 0.00 74 1012.6
20200402043139 72 61 0.0 0.0 0.00 0.00 0.00 74 1012.7
20200402041615 72 61 0.0 0.0 0.00 0.00 0.00 74 1012.7
20200402040055 72 61 0.0 0.0 0.00 0.00 0.00 74 1012.7
20200402034626 72 61 0.0 0.0 0.00 0.00 0.07 74 1012.6
20200402033133 73 61 0.0 0.0 0.00 0.00 0.07 74 1012.3
20200402031603 73 61 0.0 0.0 0.00 0.00 0.07 74 1012.3
20200402030047 73 61 0.0 0.0 0.00 0.00 0.07 74 1012.0
20200402024716 73 61 0.0 0.0 0.00 0.00 0.07 75 1011.7
20200402023144 73 63 0.0 0.0 0.00 0.00 0.07 75 1011.6
20200402021554 72 37 0.0 0.0 0.00 0.00 0.07 76 1011.4
20200402020047 73 35 0.0 0.0 0.00 0.00 0.07 75 1011.3
20200402014534 73 51 1.0 0.0 0.00 0.00 0.07 75 1011.0
20200402013101 73 56 2.0 0.0 0.00 0.00 0.07 74 1010.6
20200402011552 73 49 1.0 0.0 0.00 0.00 0.07 73 1010.4
20200402010036 74 59 2.0 0.0 0.00 0.00 0.07 73 1010.4
20200402004541 74 14 2.0 0.0 0.00 0.00 0.07 71 1010.2
20200402003034 74 61 2.0 0.0 0.00 0.00 0.07 71 1010.1
20200402001558 74 48 2.0 0.0 0.00 0.00 0.07 71 1010.0
20200402000032 74 19 3.0 0.0 0.00 0.00 0.07 71 1009.8
20200401234527 74 36 4.0 0.0 0.00 0.00 0.07 71 1009.7
20200401233114 75 4.0 0.0 0.00 0.00 0.07 69 1009.4
20200401231603 76 50 3.0 0.0 0.00 0.00 0.07 69 1009.4
20200401230135 76 68 5.0 0.0 0.00 0.00 0.07 69 1009.1
20200401224610 77 32 5.0 0.0 0.00 0.00 0.07 65 1009.0
20200401223124 78 51 5.0 0.0 0.00 0.00 0.07 61 1008.9
20200401221536 80 57 3.0 0.0 0.00 0.00 0.07 60 1008.8
20200401220022 83 64 0.0 0.0 0.00 0.00 0.07 50 1008.5
20200401214544 84 12 1.0 0.0 0.00 0.00 0.07 44 1008.4
20200401213018 84 16 0.0 0.0 0.00 0.00 0.07 45 1008.3
20200401211634 86 329 0.0 0.0 0.00 0.00 0.07 41 1008.2
20200401210124 85 317 0.0 0.0 0.00 0.00 0.07 42 1008.0
20200401203119 86 304 1.0 0.0 0.00 0.00 0.07 39 1008.1
20200401201615 87 45 0.0 0.0 0.00 0.00 0.07 39 1008.0
20200401200103 85 17 1.0 0.0 0.00 0.00 0.07 43 1007.9
20200401193057 85 277 1.0 0.0 0.00 0.00 0.07 42 1007.9
20200401191823 86 207 0.0 0.0 0.00 0.00 0.07 44 1008.0
20200401190101 86 320 1.0 0.0 0.00 0.00 0.07 46 1008.0
20200401183059 85 304 2.0 0.0 0.00 0.00 0.07 41 1008.2
20200401181547 85 15 1.0 0.0 0.00 0.00 0.07 45 1008.4
20200401180043 85 311 1.0 0.0 0.00 0.00 0.07 50 1008.6
20200401173109 83 292 1.0 0.0 0.00 0.00 0.07 59 1008.8
20200401171701 82 303 2.0 0.0 0.00 0.00 0.07 61 1008.9
20200401170041 83 302 1.0 0.0 0.00 0.00 0.07 63 1009.0
20200401163043 82 35 1.0 0.0 0.00 0.00 0.07 68 1009.3
20200401161532 82 292 1.0 0.0 0.00 0.00 0.07 67 1009.4
20200401160126 81 322 1.0 0.0 0.00 0.00 0.07 71 1009.6
20200401153039 81 275 1.0 0.0 0.00 0.00 0.07 72 1009.3
20200401151716 80 257 2.0 0.0 0.00 0.00 0.07 74 1009.3
20200401150047 80 309 2.0 0.0 0.00 0.00 0.07 75 1009.2
20200401143031 78 294 1.0 0.0 0.00 0.00 0.07 80 1009.3
20200401141557 78 314 1.0 0.0 0.00 0.00 0.07 84 1009.2
20200401140021 77 319 1.0 0.0 0.00 0.00 0.07 85 1009.1
20200401133103 75 283 1.0 0.0 0.00 0.00 0.07 89 1008.8
20200401131536 75 261 1.0 0.0 0.00 0.00 0.07 91 1008.7
20200401130015 74 275 1.0 0.0 0.00 0.00 0.07 93 1008.6
20200401123038 73 263 0.0 0.0 0.00 0.00 0.07 94 1008.5
20200401121517 73 274 0.0 0.0 0.00 0.00 0.07 93 1008.4
20200401120023 73 240 0.0 0.0 0.00 0.00 0.07 93 1008.1
20200401113010 72 263 2.0 0.0 0.00 0.00 0.07 92 1008.1
20200401111520 72 234 2.0 0.0 0.00 0.00 0.07 92 1008.1
20200401110003 73 236 2.0 0.0 0.00 0.00 0.07 91 1007.9
20200401103319 74 245 2.0 0.0 0.00 0.00 0.07 90 1007.3
20200401101723 75 281 2.0 0.0 0.00 0.00 0.06 89 1007.2
20200401100226 77 288 2.0 0.0 0.00 0.00 0.01 88 1007.2
20200401093111 77 254 2.0 0.0 0.00 0.00 0.00 88 1006.5
20200401091714 77 232 4.0 0.0 0.00 0.00 0.00 88 1006.4
20200401090113 77 286 3.0 0.0 0.00 0.00 0.00 89 1006.5
20200401083224 76 257 3.0 0.0 0.00 0.00 0.00 89 1006.3
20200401081741 76 269 2.0 0.0 0.00 0.00 0.00 89 1006.1
20200401080204 76 203 2.0 0.0 0.00 0.00 0.00 89 1006.3